sensor_id;sensor_type;location;lat;lon;timestamp;temperature;humidity
41471;DHT22;27211;51.220;5.308;2023-11-22T09:30:39;7.60;99.90
41471;DHT22;27211;51.220;5.308;2023-11-22T09:33:08;7.50;99.90
41471;DHT22;27211;51.220;5.308;2023-11-22T09:35:34;7.60;99.90
41471;DHT22;27211;51.220;5.308;2023-11-22T09:38:01;7.80;99.90
41471;DHT22;27211;51.220;5.308;2023-11-22T09:40:27;7.60;99.90
41471;DHT22;27211;51.220;5.308;2023-11-22T09:42:55;7.50;99.90
41471;DHT22;27211;51.220;5.308;2023-11-22T09:45:21;7.50;99.90
41471;DHT22;27211;51.220;5.308;2023-11-22T09:47:47;7.60;99.90
41471;DHT22;27211;51.220;5.308;2023-11-22T09:50:20;7.50;99.90
41471;DHT22;27211;51.220;5.308;2023-11-22T09:52:52;7.20;99.90
41471;DHT22;27211;51.220;5.308;2023-11-22T09:55:21;7.00;99.90
41471;DHT22;27211;51.220;5.308;2023-11-22T09:57:49;7.10;99.90
41471;DHT22;27211;51.220;5.308;2023-11-22T10:00:15;7.00;99.90
41471;DHT22;27211;51.220;5.308;2023-11-22T10:02:44;7.20;99.90
41471;DHT22;27211;51.220;5.308;2023-11-22T10:05:09;7.30;99.90
41471;DHT22;27211;51.220;5.308;2023-11-22T10:07:37;7.10;99.90
41471;DHT22;27211;51.220;5.308;2023-11-22T10:10:03;7.10;99.90
41471;DHT22;27211;51.220;5.308;2023-11-22T10:12:32;7.40;99.90
41471;DHT22;27211;51.220;5.308;2023-11-22T10:15:12;7.80;99.90
41471;DHT22;27211;51.220;5.308;2023-11-22T10:17:37;7.70;99.90
41471;DHT22;27211;51.220;5.308;2023-11-22T10:20:03;7.70;99.90
41471;DHT22;27211;51.220;5.308;2023-11-22T10:22:29;7.50;99.90
41471;DHT22;27211;51.220;5.308;2023-11-22T10:24:58;7.50;99.90
41471;DHT22;27211;51.220;5.308;2023-11-22T10:27:25;7.90;99.90
41471;DHT22;27211;51.220;5.308;2023-11-22T10:29:51;8.00;99.90
41471;DHT22;27211;51.220;5.308;2023-11-22T10:32:17;8.00;99.90
41471;DHT22;27211;51.220;5.308;2023-11-22T10:34:42;8.00;99.90
41471;DHT22;27211;51.220;5.308;2023-11-22T10:37:08;8.10;99.90
41471;DHT22;27211;51.220;5.308;2023-11-22T10:39:35;7.80;99.90
41471;DHT22;27211;51.220;5.308;2023-11-22T10:42:01;7.80;99.90
41471;DHT22;27211;51.220;5.308;2023-11-22T10:44:30;8.00;99.90
41471;DHT22;27211;51.220;5.308;2023-11-22T10:46:57;8.10;99.90
41471;DHT22;27211;51.220;5.308;2023-11-22T10:49:26;8.40;99.90
41471;DHT22;27211;51.220;5.308;2023-11-22T10:51:51;8.10;99.90
41471;DHT22;27211;51.220;5.308;2023-11-22T10:54:19;7.90;99.90
41471;DHT22;27211;51.220;5.308;2023-11-22T10:56:51;8.20;99.90
41471;DHT22;27211;51.220;5.308;2023-11-22T10:59:21;7.90;99.90
41471;DHT22;27211;51.220;5.308;2023-11-22T11:01:48;8.00;99.90
41471;DHT22;27211;51.220;5.308;2023-11-22T11:04:27;7.70;99.90
41471;DHT22;27211;51.220;5.308;2023-11-22T11:06:55;8.00;99.90
41471;DHT22;27211;51.220;5.308;2023-11-22T11:09:23;8.10;99.90
41471;DHT22;27211;51.220;5.308;2023-11-22T11:11:54;8.00;99.90
41471;DHT22;27211;51.220;5.308;2023-11-22T11:14:22;8.20;99.90
41471;DHT22;27211;51.220;5.308;2023-11-22T11:16:48;8.50;99.90
41471;DHT22;27211;51.220;5.308;2023-11-22T11:19:19;8.90;99.90
41471;DHT22;27211;51.220;5.308;2023-11-22T11:21:47;9.20;99.90
41471;DHT22;27211;51.220;5.308;2023-11-22T11:24:13;9.00;99.90
41471;DHT22;27211;51.220;5.308;2023-11-22T11:26:39;8.70;99.90
41471;DHT22;27211;51.220;5.308;2023-11-22T11:29:05;8.60;99.90
41471;DHT22;27211;51.220;5.308;2023-11-22T11:31:32;8.70;99.90
41471;DHT22;27211;51.220;5.308;2023-11-22T11:34:00;8.60;99.90
41471;DHT22;27211;51.220;5.308;2023-11-22T11:36:27;8.40;99.90
41471;DHT22;27211;51.220;5.308;2023-11-22T11:38:53;8.80;99.90
41471;DHT22;27211;51.220;5.308;2023-11-22T11:41:23;8.60;99.90
41471;DHT22;27211;51.220;5.308;2023-11-22T11:43:49;8.50;99.90
41471;DHT22;27211;51.220;5.308;2023-11-22T11:46:15;8.30;99.90
41471;DHT22;27211;51.220;5.308;2023-11-22T11:48:44;8.40;99.90
41471;DHT22;27211;51.220;5.308;2023-11-22T11:51:19;8.30;99.90
41471;DHT22;27211;51.220;5.308;2023-11-22T11:53:45;8.20;99.90
41471;DHT22;27211;51.220;5.308;2023-11-22T11:56:11;8.30;99.90
41471;DHT22;27211;51.220;5.308;2023-11-22T11:58:37;8.30;99.90
41471;DHT22;27211;51.220;5.308;2023-11-22T12:01:06;8.10;99.90
41471;DHT22;27211;51.220;5.308;2023-11-22T12:03:32;7.90;99.90
41471;DHT22;27211;51.220;5.308;2023-11-22T12:05:58;8.10;99.90
41471;DHT22;27211;51.220;5.308;2023-11-22T12:08:23;8.10;99.90
41471;DHT22;27211;51.220;5.308;2023-11-22T12:10:49;8.00;99.90
41471;DHT22;27211;51.220;5.308;2023-11-22T12:13:22;7.50;99.90
41471;DHT22;27211;51.220;5.308;2023-11-22T12:15:47;7.10;99.90
41471;DHT22;27211;51.220;5.308;2023-11-22T12:18:13;7.10;99.90
41471;DHT22;27211;51.220;5.308;2023-11-22T12:20:39;7.40;99.90
41471;DHT22;27211;51.220;5.308;2023-11-22T12:23:05;7.60;99.90
41471;DHT22;27211;51.220;5.308;2023-11-22T12:25:32;7.80;99.90
41471;DHT22;27211;51.220;5.308;2023-11-22T12:27:57;7.90;99.90
41471;DHT22;27211;51.220;5.308;2023-11-22T12:30:30;7.70;99.90
41471;DHT22;27211;51.220;5.308;2023-11-22T12:32:59;7.60;99.90
41471;DHT22;27211;51.220;5.308;2023-11-22T12:35:25;7.50;99.90
41471;DHT22;27211;51.220;5.308;2023-11-22T12:40:56;7.60;99.90
41471;DHT22;27211;51.220;5.308;2023-11-22T12:43:21;7.40;99.90
41471;DHT22;27211;51.220;5.308;2023-11-22T12:45:47;7.50;99.90
41471;DHT22;27211;51.220;5.308;2023-11-22T12:48:19;7.60;99.90
41471;DHT22;27211;51.220;5.308;2023-11-22T12:50:45;7.80;99.90
41471;DHT22;27211;51.220;5.308;2023-11-22T12:53:11;7.80;99.90
41471;DHT22;27211;51.220;5.308;2023-11-22T12:55:38;7.80;99.90
41471;DHT22;27211;51.220;5.308;2023-11-22T12:58:05;8.00;99.90
41471;DHT22;27211;51.220;5.308;2023-11-22T13:00:30;8.20;99.90
41471;DHT22;27211;51.220;5.308;2023-11-22T13:02:56;8.10;99.90
41471;DHT22;27211;51.220;5.308;2023-11-22T13:05:23;8.20;99.90
41471;DHT22;27211;51.220;5.308;2023-11-22T13:16:58;8.20;99.90
41471;DHT22;27211;51.220;5.308;2023-11-22T13:19:23;8.30;99.90
41471;DHT22;27211;51.220;5.308;2023-11-22T13:27:45;8.30;99.90
41471;DHT22;27211;51.220;5.308;2023-11-22T13:30:12;8.30;99.90
41471;DHT22;27211;51.220;5.308;2023-11-22T13:32:37;8.30;99.90
41471;DHT22;27211;51.220;5.308;2023-11-22T13:35:06;8.10;99.90
41471;DHT22;27211;51.220;5.308;2023-11-22T13:37:38;8.30;99.90
41471;DHT22;27211;51.220;5.308;2023-11-22T13:40:07;8.30;99.90
41471;DHT22;27211;51.220;5.308;2023-11-22T13:42:37;8.40;99.90
41471;DHT22;27211;51.220;5.308;2023-11-22T13:45:03;8.60;99.90
41471;DHT22;27211;51.220;5.308;2023-11-22T13:47:28;8.70;99.90
41471;DHT22;27211;51.220;5.308;2023-11-22T13:49:54;8.90;99.90
41471;DHT22;27211;51.220;5.308;2023-11-22T13:52:20;8.80;99.90
41471;DHT22;27211;51.220;5.308;2023-11-22T13:54:46;8.40;99.90
41471;DHT22;27211;51.220;5.308;2023-11-22T13:57:11;8.40;99.90
41471;DHT22;27211;51.220;5.308;2023-11-22T13:59:39;8.50;99.90
41471;DHT22;27211;51.220;5.308;2023-11-22T14:02:05;8.50;99.90
41471;DHT22;27211;51.220;5.308;2023-11-22T14:04:31;8.40;99.90
41471;DHT22;27211;51.220;5.308;2023-11-22T14:06:56;8.50;99.90
41471;DHT22;27211;51.220;5.308;2023-11-22T14:09:22;8.40;99.90
41471;DHT22;27211;51.220;5.308;2023-11-22T14:11:47;8.50;99.90
41471;DHT22;27211;51.220;5.308;2023-11-22T14:14:13;8.50;99.90
41471;DHT22;27211;51.220;5.308;2023-11-22T14:16:39;8.30;99.90
41471;DHT22;27211;51.220;5.308;2023-11-22T14:19:10;8.30;99.90
41471;DHT22;27211;51.220;5.308;2023-11-22T14:21:35;8.40;99.90
41471;DHT22;27211;51.220;5.308;2023-11-22T14:24:01;8.70;99.90
41471;DHT22;27211;51.220;5.308;2023-11-22T14:26:26;8.80;99.90
41471;DHT22;27211;51.220;5.308;2023-11-22T14:28:52;8.40;99.90
41471;DHT22;27211;51.220;5.308;2023-11-22T14:31:18;8.40;99.90
41471;DHT22;27211;51.220;5.308;2023-11-22T14:33:43;8.30;99.90
41471;DHT22;27211;51.220;5.308;2023-11-22T14:36:09;8.30;99.90
41471;DHT22;27211;51.220;5.308;2023-11-22T14:38:34;8.20;99.90
41471;DHT22;27211;51.220;5.308;2023-11-22T14:41:00;7.90;99.90
41471;DHT22;27211;51.220;5.308;2023-11-22T14:43:26;7.90;99.90
41471;DHT22;27211;51.220;5.308;2023-11-22T14:45:51;7.70;99.90
41471;DHT22;27211;51.220;5.308;2023-11-22T14:48:18;7.60;99.90
41471;DHT22;27211;51.220;5.308;2023-11-22T14:50:44;7.50;99.90
41471;DHT22;27211;51.220;5.308;2023-11-22T14:53:09;7.50;99.90
41471;DHT22;27211;51.220;5.308;2023-11-22T14:55:35;7.30;99.90
41471;DHT22;27211;51.220;5.308;2023-11-22T14:58:05;7.60;99.90
41471;DHT22;27211;51.220;5.308;2023-11-22T15:00:31;7.70;99.90
41471;DHT22;27211;51.220;5.308;2023-11-22T15:02:57;7.90;99.90
41471;DHT22;27211;51.220;5.308;2023-11-22T15:05:25;7.80;99.90
41471;DHT22;27211;51.220;5.308;2023-11-22T15:07:52;7.80;99.90
41471;DHT22;27211;51.220;5.308;2023-11-22T15:10:21;7.90;99.90
41471;DHT22;27211;51.220;5.308;2023-11-22T15:12:47;7.50;99.90
41471;DHT22;27211;51.220;5.308;2023-11-22T15:15:13;7.60;99.90
41471;DHT22;27211;51.220;5.308;2023-11-22T15:17:39;7.40;99.90
41471;DHT22;27211;51.220;5.308;2023-11-22T15:20:05;7.50;99.90
41471;DHT22;27211;51.220;5.308;2023-11-22T15:22:34;7.60;99.90
41471;DHT22;27211;51.220;5.308;2023-11-22T15:25:00;8.00;99.90
41471;DHT22;27211;51.220;5.308;2023-11-22T15:27:25;8.10;99.90
41471;DHT22;27211;51.220;5.308;2023-11-22T15:29:51;8.00;99.90
